MST,Max TemperatureF,Mean TemperatureF,Min TemperatureF,Max Dew PointF,MeanDew PointF,Min DewpointF,Max Humidity, Mean Humidity, Min Humidity, Max Sea Level PressureIn, Mean Sea Level PressureIn, Min Sea Level PressureIn, Max VisibilityMiles, Mean VisibilityMiles, Min VisibilityMiles, Max Wind SpeedMPH, Mean Wind SpeedMPH, Max Gust SpeedMPH,PrecipitationIn, CloudCover, Events, WindDirDegrees
2012-12-1,52,45,37,42,37,35,92,78,63,29.97,29.92,29.84,10,9,2,31,11,39,0.18,6,Rain-Thunderstorm,199
2012-12-2,49,41,33,41,36,30,93,77,60,29.93,29.67,29.50,10,10,5,35,19,44,0.23,6,Rain,193
2012-12-3,39,35,31,29,26,24,92,76,59,30.34,30.18,29.99,10,10,10,20,10,26,0.00,2,,196
2012-12-4,42,35,28,37,31,23,96,78,59,30.34,30.25,30.11,10,10,3,20,7,26,0.10,7,Rain-Snow,202
2012-12-5,46,43,39,43,40,36,96,88,79,30.14,30.02,29.97,10,10,5,25,14,32,0.14,7,Rain,200
2012-12-6,39,36,32,36,32,28,100,88,76,30.06,29.99,29.88,10,10,10,21,12,26,0.00,7,,217
2012-12-7,33,30,27,28,24,21,92,79,66,30.11,30.00,29.84,10,10,10,22,15,29,0.00,5,,210
2012-12-8,31,24,16,22,8,-3,75,51,27,30.20,29.97,29.78,10,10,2,23,9,30,T,3,Snow,309
2012-12-9,25,18,11,15,8,1,84,60,36,30.44,30.34,30.21,10,10,10,20,6,26,T,4,,202
2012-12-10,37,30,22,22,18,14,81,63,44,30.27,30.14,30.05,10,9,2,21,7,28,T,6,Snow,220
2012-12-11,37,31,24,28,25,21,92,76,59,30.10,29.93,29.69,10,10,10,21,9,26,0.00,7,,203
2012-12-12,39,35,31,31,26,23,82,71,59,29.90,29.73,29.64,10,10,5,28,11,36,T,6,Snow,196
2012-12-13,41,35,29,34,29,27,92,81,70,29.96,29.90,29.83,10,10,5,12,3,14,T,8,Snow,71
2012-12-14,39,34,29,32,29,27,100,82,64,29.80,29.71,29.62,10,8,2,17,6,22,0.01,8,Snow,188
2012-12-15,30,28,25,27,22,19,92,84,75,29.91,29.84,29.76,10,8,2,18,11,24,0.01,8,Snow,206
2012-12-16,31,28,24,27,23,21,92,82,72,29.89,29.80,29.70,10,6,1,18,11,24,0.11,7,Snow,201
2012-12-17,38,31,23,32,27,16,92,78,64,29.80,29.59,29.47,10,10,5,33,18,45,0.01,5,Snow,209
2012-12-18,26,16,6,18,13,3,92,76,60,30.05,29.91,29.74,10,10,10,15,7,20,0.00,1,,208
2012-12-19,21,13,4,14,8,0,88,75,62,30.49,30.25,29.87,10,9,2,15,6,18,T,6,Snow,185
2012-12-20,27,19,11,10,8,6,76,59,42,30.51,30.43,30.34,10,10,10,10,5,14,0.00,0,,71
2012-12-21,37,23,8,18,11,2,84,61,37,30.34,30.23,30.13,10,10,10,9,4,12,0.00,0,,45
2012-12-22,35,24,13,26,16,7,85,69,53,30.15,30.05,29.94,10,10,10,9,4,14,0.00,4,,65
2012-12-23,34,31,27,27,25,20,92,76,59,30.09,29.95,29.75,10,9,2,22,12,30,T,6,Snow,203
2012-12-24,32,26,20,31,26,19,100,88,75,30.17,29.83,29.72,10,6,0,21,9,25,0.11,8,Fog-Snow,206
2012-12-25,23,20,16,18,15,12,100,84,68,30.32,30.20,30.03,10,10,4,13,6,17,0.00,7,,164
2012-12-26,25,22,19,21,18,14,100,89,77,30.01,29.77,29.64,10,4,1,9,3,12,0.06,8,Snow,58
2012-12-27,22,21,19,19,18,17,100,92,84,30.16,29.94,29.72,10,8,2,10,6,15,0.02,8,Snow,211
2012-12-28,21,19,17,19,16,14,100,92,84,30.38,30.22,30.04,10,8,1,13,4,18,0.00,8,,230
2012-12-29,20,12,4,15,7,2,96,79,62,30.40,30.29,30.18,10,10,9,7,2,9,T,4,,63
2012-12-30,24,13,1,,,,,,,,,,,,,6,2,7,T,,,
2012-12-31,18,11,4,11,10,8,88,81,74,30.46,30.27,30.12,10,4,1,9,4,12,T,8,Snow,137